sensor_id;sensor_type;location;lat;lon;timestamp;temperature;humidity
44707;DHT22;30433;45.596;8.408;2022-07-29T00:01:55;20.50;99.90
44707;DHT22;30433;45.596;8.408;2022-07-29T00:07:57;20.40;99.90
44707;DHT22;30433;45.596;8.408;2022-07-29T00:14:00;20.10;99.90
44707;DHT22;30433;45.596;8.408;2022-07-29T00:20:03;20.30;99.90
44707;DHT22;30433;45.596;8.408;2022-07-29T00:26:06;20.50;99.90
44707;DHT22;30433;45.596;8.408;2022-07-29T00:32:09;20.40;99.90
44707;DHT22;30433;45.596;8.408;2022-07-29T00:38:12;19.80;99.90
44707;DHT22;30433;45.596;8.408;2022-07-29T00:44:14;19.70;99.90
44707;DHT22;30433;45.596;8.408;2022-07-29T00:50:18;20.10;99.90
44707;DHT22;30433;45.596;8.408;2022-07-29T00:56:20;20.10;99.90
44707;DHT22;30433;45.596;8.408;2022-07-29T01:02:22;19.90;99.90
44707;DHT22;30433;45.596;8.408;2022-07-29T01:08:25;20.10;99.90
44707;DHT22;30433;45.596;8.408;2022-07-29T01:14:28;20.20;99.90
44707;DHT22;30433;45.596;8.408;2022-07-29T01:20:40;20.50;99.90
44707;DHT22;30433;45.596;8.408;2022-07-29T01:26:53;20.20;99.90
44707;DHT22;30433;45.596;8.408;2022-07-29T01:33:03;19.90;99.90
44707;DHT22;30433;45.596;8.408;2022-07-29T01:39:11;20.10;99.90
44707;DHT22;30433;45.596;8.408;2022-07-29T01:45:17;20.10;99.90
44707;DHT22;30433;45.596;8.408;2022-07-29T01:51:28;20.30;99.90
44707;DHT22;30433;45.596;8.408;2022-07-29T01:57:33;20.30;99.90
44707;DHT22;30433;45.596;8.408;2022-07-29T02:03:37;20.30;99.90
44707;DHT22;30433;45.596;8.408;2022-07-29T02:09:42;20.30;99.90
44707;DHT22;30433;45.596;8.408;2022-07-29T02:15:46;20.30;99.90
44707;DHT22;30433;45.596;8.408;2022-07-29T02:21:51;20.60;99.90
44707;DHT22;30433;45.596;8.408;2022-07-29T02:27:57;20.40;99.90
44707;DHT22;30433;45.596;8.408;2022-07-29T02:34:02;20.80;99.90
44707;DHT22;30433;45.596;8.408;2022-07-29T02:40:09;20.20;99.90
44707;DHT22;30433;45.596;8.408;2022-07-29T02:46:18;19.90;99.90
44707;DHT22;30433;45.596;8.408;2022-07-29T02:52:26;19.90;99.90
44707;DHT22;30433;45.596;8.408;2022-07-29T02:58:31;20.40;99.90
44707;DHT22;30433;45.596;8.408;2022-07-29T03:04:36;20.30;99.90
44707;DHT22;30433;45.596;8.408;2022-07-29T03:10:43;20.10;99.90
44707;DHT22;30433;45.596;8.408;2022-07-29T03:16:46;20.30;99.90
44707;DHT22;30433;45.596;8.408;2022-07-29T03:22:50;20.10;99.90
44707;DHT22;30433;45.596;8.408;2022-07-29T03:28:53;20.10;99.90
44707;DHT22;30433;45.596;8.408;2022-07-29T03:34:55;20.20;99.90
44707;DHT22;30433;45.596;8.408;2022-07-29T03:41:01;20.10;99.90
44707;DHT22;30433;45.596;8.408;2022-07-29T03:47:06;20.00;99.90
44707;DHT22;30433;45.596;8.408;2022-07-29T03:53:10;19.70;99.90
44707;DHT22;30433;45.596;8.408;2022-07-29T03:59:15;19.70;99.90
44707;DHT22;30433;45.596;8.408;2022-07-29T04:05:18;19.80;99.90
44707;DHT22;30433;45.596;8.408;2022-07-29T04:11:20;19.60;99.90
44707;DHT22;30433;45.596;8.408;2022-07-29T04:17:23;19.60;99.90
44707;DHT22;30433;45.596;8.408;2022-07-29T04:23:25;19.80;99.90
44707;DHT22;30433;45.596;8.408;2022-07-29T04:29:27;19.70;99.90
44707;DHT22;30433;45.596;8.408;2022-07-29T04:35:33;19.70;99.90
44707;DHT22;30433;45.596;8.408;2022-07-29T04:41:35;19.80;99.90
44707;DHT22;30433;45.596;8.408;2022-07-29T04:47:37;19.70;99.90
44707;DHT22;30433;45.596;8.408;2022-07-29T04:53:41;20.10;99.90
44707;DHT22;30433;45.596;8.408;2022-07-29T04:59:43;19.50;99.90
44707;DHT22;30433;45.596;8.408;2022-07-29T05:05:45;20.10;99.90
44707;DHT22;30433;45.596;8.408;2022-07-29T05:11:48;21.10;99.90
44707;DHT22;30433;45.596;8.408;2022-07-29T05:17:50;21.70;99.90
44707;DHT22;30433;45.596;8.408;2022-07-29T05:23:52;21.30;99.90
44707;DHT22;30433;45.596;8.408;2022-07-29T05:29:56;22.30;99.90
44707;DHT22;30433;45.596;8.408;2022-07-29T05:35:58;22.40;99.90
44707;DHT22;30433;45.596;8.408;2022-07-29T05:42:00;22.50;99.90
44707;DHT22;30433;45.596;8.408;2022-07-29T05:48:05;22.00;99.90
44707;DHT22;30433;45.596;8.408;2022-07-29T05:54:07;21.30;99.90
44707;DHT22;30433;45.596;8.408;2022-07-29T06:00:10;21.80;99.90
44707;DHT22;30433;45.596;8.408;2022-07-29T06:06:14;22.20;99.90
44707;DHT22;30433;45.596;8.408;2022-07-29T06:12:16;22.60;99.70
44707;DHT22;30433;45.596;8.408;2022-07-29T06:18:18;22.70;99.10
44707;DHT22;30433;45.596;8.408;2022-07-29T06:24:22;22.60;99.20
44707;DHT22;30433;45.596;8.408;2022-07-29T06:30:24;23.40;98.80
44707;DHT22;30433;45.596;8.408;2022-07-29T06:36:26;22.90;99.10
44707;DHT22;30433;45.596;8.408;2022-07-29T06:42:30;23.10;98.50
44707;DHT22;30433;45.596;8.408;2022-07-29T06:48:33;23.50;98.00
44707;DHT22;30433;45.596;8.408;2022-07-29T06:54:36;23.60;97.60
44707;DHT22;30433;45.596;8.408;2022-07-29T07:00:40;23.50;97.30
44707;DHT22;30433;45.596;8.408;2022-07-29T07:06:42;23.30;97.70
44707;DHT22;30433;45.596;8.408;2022-07-29T07:12:44;23.80;98.10
44707;DHT22;30433;45.596;8.408;2022-07-29T07:18:48;23.90;97.30
44707;DHT22;30433;45.596;8.408;2022-07-29T07:24:50;24.90;96.70
44707;DHT22;30433;45.596;8.408;2022-07-29T07:30:52;24.20;97.00
44707;DHT22;30433;45.596;8.408;2022-07-29T07:36:55;24.60;96.80
44707;DHT22;30433;45.596;8.408;2022-07-29T07:42:57;25.40;96.30
44707;DHT22;30433;45.596;8.408;2022-07-29T07:48:59;25.00;95.80
44707;DHT22;30433;45.596;8.408;2022-07-29T07:55:03;25.20;95.60
44707;DHT22;30433;45.596;8.408;2022-07-29T08:01:05;25.50;94.50
44707;DHT22;30433;45.596;8.408;2022-07-29T08:07:08;26.10;94.40
44707;DHT22;30433;45.596;8.408;2022-07-29T08:13:11;25.90;94.50
44707;DHT22;30433;45.596;8.408;2022-07-29T08:19:13;25.60;94.30
44707;DHT22;30433;45.596;8.408;2022-07-29T08:25:15;26.30;94.00
44707;DHT22;30433;45.596;8.408;2022-07-29T08:31:22;26.30;93.50
44707;DHT22;30433;45.596;8.408;2022-07-29T08:37:24;26.20;93.20
44707;DHT22;30433;45.596;8.408;2022-07-29T08:43:27;26.40;93.20
44707;DHT22;30433;45.596;8.408;2022-07-29T08:49:33;26.50;92.90
44707;DHT22;30433;45.596;8.408;2022-07-29T08:55:35;26.40;93.20
44707;DHT22;30433;45.596;8.408;2022-07-29T09:01:38;26.90;92.20
44707;DHT22;30433;45.596;8.408;2022-07-29T09:07:44;27.10;92.30
44707;DHT22;30433;45.596;8.408;2022-07-29T09:13:48;26.80;92.00
44707;DHT22;30433;45.596;8.408;2022-07-29T09:19:50;26.70;92.40
44707;DHT22;30433;45.596;8.408;2022-07-29T09:25:54;27.20;91.80
44707;DHT22;30433;45.596;8.408;2022-07-29T09:31:56;27.10;92.00
44707;DHT22;30433;45.596;8.408;2022-07-29T09:38:10;26.90;92.20
44707;DHT22;30433;45.596;8.408;2022-07-29T09:44:14;27.00;92.50
44707;DHT22;30433;45.596;8.408;2022-07-29T09:50:17;27.30;92.10
44707;DHT22;30433;45.596;8.408;2022-07-29T09:56:38;27.50;91.80
44707;DHT22;30433;45.596;8.408;2022-07-29T10:02:44;27.00;92.30
44707;DHT22;30433;45.596;8.408;2022-07-29T10:08:46;27.50;91.90
44707;DHT22;30433;45.596;8.408;2022-07-29T10:14:50;27.70;91.40
44707;DHT22;30433;45.596;8.408;2022-07-29T10:20:54;27.30;91.70
44707;DHT22;30433;45.596;8.408;2022-07-29T10:26:59;27.20;92.20
44707;DHT22;30433;45.596;8.408;2022-07-29T10:33:14;27.70;93.10
44707;DHT22;30433;45.596;8.408;2022-07-29T10:39:32;27.70;93.20
44707;DHT22;30433;45.596;8.408;2022-07-29T10:45:39;28.10;93.50
44707;DHT22;30433;45.596;8.408;2022-07-29T10:51:54;28.60;92.80
44707;DHT22;30433;45.596;8.408;2022-07-29T10:58:13;28.60;92.50
44707;DHT22;30433;45.596;8.408;2022-07-29T11:04:15;28.50;92.60
44707;DHT22;30433;45.596;8.408;2022-07-29T11:10:21;28.20;93.30
44707;DHT22;30433;45.596;8.408;2022-07-29T11:16:25;28.10;92.50
44707;DHT22;30433;45.596;8.408;2022-07-29T11:22:34;28.10;93.10
44707;DHT22;30433;45.596;8.408;2022-07-29T11:28:49;27.90;93.00
44707;DHT22;30433;45.596;8.408;2022-07-29T11:35:14;27.90;92.90
44707;DHT22;30433;45.596;8.408;2022-07-29T11:41:25;28.60;92.70
44707;DHT22;30433;45.596;8.408;2022-07-29T11:47:28;28.70;92.50
44707;DHT22;30433;45.596;8.408;2022-07-29T11:53:33;27.60;93.00
44707;DHT22;30433;45.596;8.408;2022-07-29T11:59:39;27.60;93.40
44707;DHT22;30433;45.596;8.408;2022-07-29T12:05:44;27.40;93.90
44707;DHT22;30433;45.596;8.408;2022-07-29T12:11:48;27.10;93.70
44707;DHT22;30433;45.596;8.408;2022-07-29T12:17:50;27.10;93.80
44707;DHT22;30433;45.596;8.408;2022-07-29T12:23:53;27.20;93.90
44707;DHT22;30433;45.596;8.408;2022-07-29T12:29:57;27.20;94.40
44707;DHT22;30433;45.596;8.408;2022-07-29T12:36:02;27.40;94.60
44707;DHT22;30433;45.596;8.408;2022-07-29T12:42:11;27.30;94.20
44707;DHT22;30433;45.596;8.408;2022-07-29T12:48:15;27.40;94.60
44707;DHT22;30433;45.596;8.408;2022-07-29T12:54:17;27.50;94.80
44707;DHT22;30433;45.596;8.408;2022-07-29T13:00:23;27.30;94.90
44707;DHT22;30433;45.596;8.408;2022-07-29T13:06:32;27.30;94.60
44707;DHT22;30433;45.596;8.408;2022-07-29T13:12:34;27.20;94.00
44707;DHT22;30433;45.596;8.408;2022-07-29T13:18:36;27.50;94.60
44707;DHT22;30433;45.596;8.408;2022-07-29T13:24:47;27.30;94.90
44707;DHT22;30433;45.596;8.408;2022-07-29T13:30:50;27.50;95.10
44707;DHT22;30433;45.596;8.408;2022-07-29T13:36:52;27.60;95.00
44707;DHT22;30433;45.596;8.408;2022-07-29T13:42:55;27.20;95.30
44707;DHT22;30433;45.596;8.408;2022-07-29T13:48:57;27.20;95.00
44707;DHT22;30433;45.596;8.408;2022-07-29T13:54:59;26.40;95.60
44707;DHT22;30433;45.596;8.408;2022-07-29T14:01:03;26.20;94.10
44707;DHT22;30433;45.596;8.408;2022-07-29T14:07:05;25.20;93.30
44707;DHT22;30433;45.596;8.408;2022-07-29T14:13:07;25.10;93.10
44707;DHT22;30433;45.596;8.408;2022-07-29T14:19:10;25.60;92.90
44707;DHT22;30433;45.596;8.408;2022-07-29T14:25:12;25.80;92.80
44707;DHT22;30433;45.596;8.408;2022-07-29T14:31:14;25.50;93.50
44707;DHT22;30433;45.596;8.408;2022-07-29T14:37:18;25.00;93.10
44707;DHT22;30433;45.596;8.408;2022-07-29T14:43:20;25.00;93.80
44707;DHT22;30433;45.596;8.408;2022-07-29T14:49:22;24.90;94.20
44707;DHT22;30433;45.596;8.408;2022-07-29T14:55:26;24.60;94.30
44707;DHT22;30433;45.596;8.408;2022-07-29T15:01:28;24.20;94.90
44707;DHT22;30433;45.596;8.408;2022-07-29T15:07:30;23.90;95.30
44707;DHT22;30433;45.596;8.408;2022-07-29T15:13:34;24.20;95.60
44707;DHT22;30433;45.596;8.408;2022-07-29T15:19:36;24.00;95.80
44707;DHT22;30433;45.596;8.408;2022-07-29T15:25:39;23.40;97.20
44707;DHT22;30433;45.596;8.408;2022-07-29T15:31:43;23.50;97.70
44707;DHT22;30433;45.596;8.408;2022-07-29T15:37:45;23.00;99.30
44707;DHT22;30433;45.596;8.408;2022-07-29T15:43:47;23.00;99.60
44707;DHT22;30433;45.596;8.408;2022-07-29T15:49:51;22.70;99.40
44707;DHT22;30433;45.596;8.408;2022-07-29T15:55:53;22.90;99.50
44707;DHT22;30433;45.596;8.408;2022-07-29T16:01:55;23.20;99.30
44707;DHT22;30433;45.596;8.408;2022-07-29T16:07:58;23.30;99.40
44707;DHT22;30433;45.596;8.408;2022-07-29T16:14:00;22.80;99.90
44707;DHT22;30433;45.596;8.408;2022-07-29T16:20:03;22.60;99.90
44707;DHT22;30433;45.596;8.408;2022-07-29T16:26:07;22.40;99.90
44707;DHT22;30433;45.596;8.408;2022-07-29T16:32:09;22.30;99.90
44707;DHT22;30433;45.596;8.408;2022-07-29T16:38:11;22.40;99.90
44707;DHT22;30433;45.596;8.408;2022-07-29T16:44:15;22.30;99.90
44707;DHT22;30433;45.596;8.408;2022-07-29T16:50:17;21.70;99.90
44707;DHT22;30433;45.596;8.408;2022-07-29T16:56:19;21.80;99.90
44707;DHT22;30433;45.596;8.408;2022-07-29T17:02:23;22.20;99.90
44707;DHT22;30433;45.596;8.408;2022-07-29T17:08:25;22.40;99.90
44707;DHT22;30433;45.596;8.408;2022-07-29T17:14:28;22.70;99.90
44707;DHT22;30433;45.596;8.408;2022-07-29T17:20:32;22.90;99.50
44707;DHT22;30433;45.596;8.408;2022-07-29T17:26:36;23.20;98.80
44707;DHT22;30433;45.596;8.408;2022-07-29T17:32:39;23.30;99.00
44707;DHT22;30433;45.596;8.408;2022-07-29T17:38:42;23.30;98.90
44707;DHT22;30433;45.596;8.408;2022-07-29T17:44:45;23.40;98.50
44707;DHT22;30433;45.596;8.408;2022-07-29T17:50:47;23.50;98.60
44707;DHT22;30433;45.596;8.408;2022-07-29T17:56:50;23.50;98.70
44707;DHT22;30433;45.596;8.408;2022-07-29T18:02:52;23.30;98.90
44707;DHT22;30433;45.596;8.408;2022-07-29T18:08:54;23.40;99.30
44707;DHT22;30433;45.596;8.408;2022-07-29T18:14:58;23.20;99.30
44707;DHT22;30433;45.596;8.408;2022-07-29T18:21:00;23.30;99.20
44707;DHT22;30433;45.596;8.408;2022-07-29T18:27:02;23.00;99.80
44707;DHT22;30433;45.596;8.408;2022-07-29T18:33:05;23.10;99.80
44707;DHT22;30433;45.596;8.408;2022-07-29T18:39:12;22.90;99.90
44707;DHT22;30433;45.596;8.408;2022-07-29T18:45:15;22.90;99.90
44707;DHT22;30433;45.596;8.408;2022-07-29T18:51:19;22.70;99.90
44707;DHT22;30433;45.596;8.408;2022-07-29T18:57:21;22.40;99.90
44707;DHT22;30433;45.596;8.408;2022-07-29T19:03:23;22.20;99.90
44707;DHT22;30433;45.596;8.408;2022-07-29T19:09:26;22.20;99.90
44707;DHT22;30433;45.596;8.408;2022-07-29T19:15:28;22.10;99.90
44707;DHT22;30433;45.596;8.408;2022-07-29T19:21:30;21.90;99.90
44707;DHT22;30433;45.596;8.408;2022-07-29T19:27:34;21.70;99.90
44707;DHT22;30433;45.596;8.408;2022-07-29T19:33:36;21.70;99.90
44707;DHT22;30433;45.596;8.408;2022-07-29T19:39:38;21.20;99.90
44707;DHT22;30433;45.596;8.408;2022-07-29T19:45:41;21.40;99.90
44707;DHT22;30433;45.596;8.408;2022-07-29T19:51:43;21.30;99.90
44707;DHT22;30433;45.596;8.408;2022-07-29T19:57:45;21.10;99.90
44707;DHT22;30433;45.596;8.408;2022-07-29T20:03:50;20.80;99.90
44707;DHT22;30433;45.596;8.408;2022-07-29T20:09:53;21.00;99.90
44707;DHT22;30433;45.596;8.408;2022-07-29T20:15:56;20.90;99.90
44707;DHT22;30433;45.596;8.408;2022-07-29T20:21:59;20.40;99.90
44707;DHT22;30433;45.596;8.408;2022-07-29T20:28:01;20.50;99.90
44707;DHT22;30433;45.596;8.408;2022-07-29T20:34:04;20.40;99.90
44707;DHT22;30433;45.596;8.408;2022-07-29T20:40:09;20.60;99.90
44707;DHT22;30433;45.596;8.408;2022-07-29T20:46:11;20.60;99.90
44707;DHT22;30433;45.596;8.408;2022-07-29T20:52:14;19.90;99.90
44707;DHT22;30433;45.596;8.408;2022-07-29T20:58:19;19.80;99.90
44707;DHT22;30433;45.596;8.408;2022-07-29T21:04:23;20.10;99.90
44707;DHT22;30433;45.596;8.408;2022-07-29T21:10:26;20.00;99.90
44707;DHT22;30433;45.596;8.408;2022-07-29T21:16:30;20.10;99.90
44707;DHT22;30433;45.596;8.408;2022-07-29T21:22:33;19.60;99.90
44707;DHT22;30433;45.596;8.408;2022-07-29T21:28:35;20.00;99.90
44707;DHT22;30433;45.596;8.408;2022-07-29T21:34:40;19.90;99.90
44707;DHT22;30433;45.596;8.408;2022-07-29T21:40:43;18.90;99.90
44707;DHT22;30433;45.596;8.408;2022-07-29T21:46:46;19.80;99.90
44707;DHT22;30433;45.596;8.408;2022-07-29T21:52:49;20.00;99.90
44707;DHT22;30433;45.596;8.408;2022-07-29T21:58:51;19.70;99.90
44707;DHT22;30433;45.596;8.408;2022-07-29T22:04:53;19.70;99.90
44707;DHT22;30433;45.596;8.408;2022-07-29T22:10:56;19.70;99.90
44707;DHT22;30433;45.596;8.408;2022-07-29T22:16:58;19.70;99.90
44707;DHT22;30433;45.596;8.408;2022-07-29T22:23:00;19.20;99.90
44707;DHT22;30433;45.596;8.408;2022-07-29T22:29:04;19.50;99.90
44707;DHT22;30433;45.596;8.408;2022-07-29T22:35:06;19.00;99.90
44707;DHT22;30433;45.596;8.408;2022-07-29T22:41:10;19.40;99.90
44707;DHT22;30433;45.596;8.408;2022-07-29T22:47:13;18.90;99.90
44707;DHT22;30433;45.596;8.408;2022-07-29T22:53:15;19.00;99.90
44707;DHT22;30433;45.596;8.408;2022-07-29T22:59:17;19.30;99.90
44707;DHT22;30433;45.596;8.408;2022-07-29T23:05:21;19.00;99.90
44707;DHT22;30433;45.596;8.408;2022-07-29T23:11:23;18.60;99.90
44707;DHT22;30433;45.596;8.408;2022-07-29T23:17:25;18.10;99.90
44707;DHT22;30433;45.596;8.408;2022-07-29T23:23:28;18.70;99.90
44707;DHT22;30433;45.596;8.408;2022-07-29T23:29:30;18.70;99.90
44707;DHT22;30433;45.596;8.408;2022-07-29T23:35:33;18.70;99.90
44707;DHT22;30433;45.596;8.408;2022-07-29T23:41:36;18.60;99.90
44707;DHT22;30433;45.596;8.408;2022-07-29T23:47:39;18.60;99.90
44707;DHT22;30433;45.596;8.408;2022-07-29T23:53:41;18.60;99.90
44707;DHT22;30433;45.596;8.408;2022-07-29T23:59:44;18.00;99.90
